MPTOSKSP

Guest
Details From MPTO - Tocumen Intl
To SKSP - GUSTAVO ROJAS PINILLA
Flight Number -
Tags generated
Created
Modified
Stats Distance 256 nm / 474 km
Max Altitude 30,400 ft / 9,266 m
Waypoints 4
Social Downloads 0
Likes 0
Share VATSIM

Download

Looking for another format? Having issues loading an existing format? Contact us
Advertisement - Login to hide

Notes

Basic altitude profile: - Ascent Rate: 2500ft/min - Ascent Speed: 250kts - Cruise Altitude: 35000ft - Cruise Speed: 420kts - Descent Rate: 1500ft/min - Descent Speed: 250kts Options: - Use NATs: yes - Use PACOTS: yes - Use low airways: yes - Use high airways: yes

Route

MPTO SEKMA UG447 SPP SKSP

ID Type Via Altitude (ft/m) Position (lat/lon) Dist (leg/tot) Name
O MPTO APT - 0 / 0 9.07136 / -79.38346 - / 0 nm Tocumen Intl
SEKMA FIX - 30,400 / 9,266 10.41956 / -79.84064 85 / 85 nm
SPP VOR UG447 (AWY-HI) 18,500 / 5,639 12.58250 / -81.70500 170 / 255 nm SAN ANDRES VOR-DME
O SKSP APT - 0 / 0 12.58359 / -81.71119 0 / 255 nm GUSTAVO ROJAS PINILLA

Altitude Profile

Advertisement - Login to hide

Weather


0- 5 10 15 20 25 30 35+ Temperature / °C

Clouds and Precipitation
Forecast for 2019-04-26 00:00 UTC. Updated an hour ago

Ground ~20,000 ft ~40,000 ft Winds

MPTO

Details ICAO MPTO (PTY)
Name Tocumen Intl
Region Panama
Timezone America/Panama (UTC-5.0)
Stats Elevation 135 ft / 41 m (AMSL)
Location 9.071400° -79.383400°
Runways 2
Magnetic Variation 4.726° W

METAR

MPTO 252200Z 07004KT 030V120 9999 SCT018 32/22 Q1008 NOSIG

Decode

TAF

TAF MPTO 251600Z 2518/2624 21008KT 9999 SCT018 PROB30 TEMPO 2619/2623 VRB02KT

Decode

Departure Runways

ID Width Length Bearing (true/mag) Surface Threshold Overrun Markings Lighting
03L 148 ft / 45 m 8,808 ft / 2,685 m 30.67° / 35.40° ASPHALT 791 ft / 241 m 220 ft / 67 m PREC-APP EDGE THRESHOLD ALSF-I REIL-OMNI
03R 148 ft / 45 m 10,016 ft / 3,053 m 29.32° / 34.04° CONCRETE 0 ft / 0 m 213 ft / 65 m PREC-APP CENTERLINE EDGE THRESHOLD ALSF-I TDZ REIL-OMNI
21L 148 ft / 45 m 10,016 ft / 3,053 m 209.32° / 214.05° CONCRETE 0 ft / 0 m 217 ft / 66 m PREC-APP CENTERLINE EDGE THRESHOLD ALSF-I REIL-OMNI
21R 148 ft / 45 m 8,808 ft / 2,685 m 210.67° / 215.40° ASPHALT 0 ft / 0 m 194 ft / 59 m PREC-APP EDGE THRESHOLD ALSF-I REIL-OMNI

SKSP

Details ICAO SKSP (ADZ)
Name Gustavo Rojas Pinilla Int'l
Region Colombia
Timezone Unknown
Stats Elevation 19 ft / 6 m (AMSL)
Location 12.583600° -81.711200°
Runways 1
Magnetic Variation 3.868° W

METAR

SKSP 252200Z 09007KT 060V150 9999 FEW018 OVC200 29/23 A2987

Decode

TAF

TAF SKSP 251630Z 2518/2618 07012KT 9999 FEW018 BKN300 PROB30 TEMPO 2621/2623 9000 -SHRA SCT015TCU TX31/2519Z TN26/2611Z

Decode

Destination Runways

ID Width Length Bearing (true/mag) Surface Threshold Overrun Markings Lighting
06 148 ft / 45 m 7,799 ft / 2,377 m 59.55° / 63.41° ASPHALT 0 ft / 0 m 0 ft / 0 m APP EDGE THRESHOLD
24 148 ft / 45 m 7,799 ft / 2,377 m 239.55° / 243.42° ASPHALT 0 ft / 0 m 0 ft / 0 m APP EDGE THRESHOLD

Popular Alternatives